METAR Data
IDs: Format: Raw Decoded Include TAF

Data at: 0239 UTC 10 Dec 2022

KVIS 100156Z AUTO 21013KT 10SM CLR 10/06 A3010 RMK AO2 SLP203 T01000056